sensor_id;sensor_type;location;lat;lon;timestamp;pressure;altitude;pressure_sealevel;temperature;humidity
79586;BME280;69054;50.866;4.636;2024-01-25T00:02:40;102392.13;;;7.02;100.00
79586;BME280;69054;50.866;4.636;2024-01-25T00:05:06;102396.72;;;7.01;100.00
79586;BME280;69054;50.866;4.636;2024-01-25T00:07:31;102386.69;;;7.02;100.00
79586;BME280;69054;50.866;4.636;2024-01-25T00:09:57;102386.16;;;7.08;100.00
79586;BME280;69054;50.866;4.636;2024-01-25T00:12:23;102376.75;;;7.12;100.00
79586;BME280;69054;50.866;4.636;2024-01-25T00:14:48;102378.06;;;7.18;100.00
79586;BME280;69054;50.866;4.636;2024-01-25T00:17:14;102377.00;;;7.09;100.00
79586;BME280;69054;50.866;4.636;2024-01-25T00:19:39;102376.31;;;6.86;100.00
79586;BME280;69054;50.866;4.636;2024-01-25T00:22:06;102385.88;;;6.69;100.00
79586;BME280;69054;50.866;4.636;2024-01-25T00:24:32;102378.06;;;6.54;100.00
79586;BME280;69054;50.866;4.636;2024-01-25T00:26:58;102372.28;;;6.48;100.00
79586;BME280;69054;50.866;4.636;2024-01-25T00:29:23;102391.09;;;6.28;100.00
79586;BME280;69054;50.866;4.636;2024-01-25T00:31:49;102393.78;;;6.07;100.00
79586;BME280;69054;50.866;4.636;2024-01-25T00:34:15;102397.34;;;5.85;100.00
79586;BME280;69054;50.866;4.636;2024-01-25T00:36:40;102388.72;;;5.68;100.00
79586;BME280;69054;50.866;4.636;2024-01-25T00:39:06;102389.34;;;5.83;100.00
79586;BME280;69054;50.866;4.636;2024-01-25T00:41:32;102386.56;;;6.17;100.00
79586;BME280;69054;50.866;4.636;2024-01-25T00:43:58;102388.88;;;6.33;100.00
79586;BME280;69054;50.866;4.636;2024-01-25T00:46:24;102391.59;;;6.33;100.00
79586;BME280;69054;50.866;4.636;2024-01-25T00:48:50;102390.44;;;6.15;100.00
79586;BME280;69054;50.866;4.636;2024-01-25T00:51:20;102394.72;;;6.17;100.00
79586;BME280;69054;50.866;4.636;2024-01-25T00:53:46;102393.78;;;6.07;100.00
79586;BME280;69054;50.866;4.636;2024-01-25T00:56:12;102404.50;;;6.09;100.00
79586;BME280;69054;50.866;4.636;2024-01-25T00:58:38;102409.44;;;5.92;100.00
79586;BME280;69054;50.866;4.636;2024-01-25T01:01:03;102403.16;;;5.80;100.00
79586;BME280;69054;50.866;4.636;2024-01-25T01:03:29;102397.47;;;5.72;100.00
79586;BME280;69054;50.866;4.636;2024-01-25T01:05:55;102386.38;;;5.75;100.00
79586;BME280;69054;50.866;4.636;2024-01-25T01:08:22;102387.34;;;5.85;100.00
79586;BME280;69054;50.866;4.636;2024-01-25T01:10:48;102395.75;;;5.71;100.00
79586;BME280;69054;50.866;4.636;2024-01-25T01:13:13;102405.84;;;5.46;100.00
79586;BME280;69054;50.866;4.636;2024-01-25T01:15:38;102405.09;;;5.22;100.00
79586;BME280;69054;50.866;4.636;2024-01-25T01:18:04;102411.13;;;5.25;100.00
79586;BME280;69054;50.866;4.636;2024-01-25T01:20:30;102413.03;;;5.36;100.00
79586;BME280;69054;50.866;4.636;2024-01-25T01:22:56;102414.59;;;5.27;100.00
79586;BME280;69054;50.866;4.636;2024-01-25T01:25:21;102410.00;;;5.05;100.00
79586;BME280;69054;50.866;4.636;2024-01-25T01:27:47;102413.00;;;5.13;100.00
79586;BME280;69054;50.866;4.636;2024-01-25T01:30:12;102409.19;;;5.27;100.00
79586;BME280;69054;50.866;4.636;2024-01-25T01:32:38;102417.81;;;5.21;100.00
79586;BME280;69054;50.866;4.636;2024-01-25T01:35:04;102418.13;;;5.05;100.00
79586;BME280;69054;50.866;4.636;2024-01-25T01:37:29;102425.22;;;4.84;100.00
79586;BME280;69054;50.866;4.636;2024-01-25T01:39:57;102426.84;;;4.86;100.00
79586;BME280;69054;50.866;4.636;2024-01-25T01:42:24;102420.41;;;4.87;100.00
79586;BME280;69054;50.866;4.636;2024-01-25T01:44:52;102419.13;;;4.69;100.00
79586;BME280;69054;50.866;4.636;2024-01-25T01:47:18;102419.38;;;4.66;100.00
79586;BME280;69054;50.866;4.636;2024-01-25T01:49:44;102426.34;;;4.57;100.00
79586;BME280;69054;50.866;4.636;2024-01-25T01:52:10;102429.75;;;4.48;100.00
79586;BME280;69054;50.866;4.636;2024-01-25T01:54:37;102427.00;;;4.36;100.00
79586;BME280;69054;50.866;4.636;2024-01-25T01:57:03;102429.81;;;4.35;100.00
79586;BME280;69054;50.866;4.636;2024-01-25T01:59:29;102414.59;;;4.21;100.00
79586;BME280;69054;50.866;4.636;2024-01-25T02:01:55;102417.28;;;4.21;100.00
79586;BME280;69054;50.866;4.636;2024-01-25T02:04:21;102419.16;;;4.20;100.00
79586;BME280;69054;50.866;4.636;2024-01-25T02:06:46;102427.28;;;4.44;100.00
79586;BME280;69054;50.866;4.636;2024-01-25T02:09:13;102422.44;;;4.61;100.00
79586;BME280;69054;50.866;4.636;2024-01-25T02:11:38;102421.22;;;4.65;100.00
79586;BME280;69054;50.866;4.636;2024-01-25T02:14:04;102417.63;;;4.65;100.00
79586;BME280;69054;50.866;4.636;2024-01-25T02:16:30;102421.25;;;4.41;100.00
79586;BME280;69054;50.866;4.636;2024-01-25T02:18:55;102419.38;;;4.17;100.00
79586;BME280;69054;50.866;4.636;2024-01-25T02:21:23;102429.94;;;3.96;100.00
79586;BME280;69054;50.866;4.636;2024-01-25T02:23:50;102433.53;;;3.84;100.00
79586;BME280;69054;50.866;4.636;2024-01-25T02:26:15;102435.41;;;3.70;100.00
79586;BME280;69054;50.866;4.636;2024-01-25T02:28:40;102426.22;;;3.60;100.00
79586;BME280;69054;50.866;4.636;2024-01-25T02:31:06;102419.66;;;3.38;100.00
79586;BME280;69054;50.866;4.636;2024-01-25T02:33:31;102413.94;;;3.30;100.00
79586;BME280;69054;50.866;4.636;2024-01-25T02:35:57;102413.81;;;3.32;100.00
79586;BME280;69054;50.866;4.636;2024-01-25T02:38:22;102414.59;;;3.21;100.00
79586;BME280;69054;50.866;4.636;2024-01-25T02:40:49;102418.34;;;3.06;100.00
79586;BME280;69054;50.866;4.636;2024-01-25T02:43:14;102420.06;;;2.94;100.00
79586;BME280;69054;50.866;4.636;2024-01-25T02:45:39;102409.56;;;2.89;100.00
79586;BME280;69054;50.866;4.636;2024-01-25T02:48:05;102403.09;;;2.92;100.00
79586;BME280;69054;50.866;4.636;2024-01-25T02:50:31;102404.19;;;3.15;100.00
79586;BME280;69054;50.866;4.636;2024-01-25T02:52:56;102411.53;;;3.00;100.00
79586;BME280;69054;50.866;4.636;2024-01-25T02:55:22;102417.75;;;2.88;100.00
79586;BME280;69054;50.866;4.636;2024-01-25T02:57:47;102417.66;;;2.76;100.00
79586;BME280;69054;50.866;4.636;2024-01-25T03:00:13;102408.13;;;2.71;100.00
79586;BME280;69054;50.866;4.636;2024-01-25T03:02:38;102408.91;;;2.73;100.00
79586;BME280;69054;50.866;4.636;2024-01-25T03:05:04;102419.56;;;2.61;100.00
79586;BME280;69054;50.866;4.636;2024-01-25T03:07:29;102416.41;;;2.55;100.00
79586;BME280;69054;50.866;4.636;2024-01-25T03:09:55;102421.03;;;3.06;100.00
79586;BME280;69054;50.866;4.636;2024-01-25T03:12:20;102414.56;;;3.34;100.00
79586;BME280;69054;50.866;4.636;2024-01-25T03:14:47;102411.00;;;3.33;100.00
79586;BME280;69054;50.866;4.636;2024-01-25T03:17:13;102412.94;;;3.06;100.00
79586;BME280;69054;50.866;4.636;2024-01-25T03:19:38;102422.84;;;2.79;100.00
79586;BME280;69054;50.866;4.636;2024-01-25T03:22:04;102424.75;;;2.64;100.00
79586;BME280;69054;50.866;4.636;2024-01-25T03:24:29;102414.47;;;2.97;100.00
79586;BME280;69054;50.866;4.636;2024-01-25T03:26:55;102424.50;;;3.20;100.00
79586;BME280;69054;50.866;4.636;2024-01-25T03:29:20;102431.19;;;3.15;100.00
79586;BME280;69054;50.866;4.636;2024-01-25T03:31:46;102441.16;;;3.01;100.00
79586;BME280;69054;50.866;4.636;2024-01-25T03:34:11;102440.78;;;2.80;100.00
79586;BME280;69054;50.866;4.636;2024-01-25T03:36:38;102439.13;;;2.65;100.00
79586;BME280;69054;50.866;4.636;2024-01-25T03:39:05;102443.81;;;2.48;100.00
79586;BME280;69054;50.866;4.636;2024-01-25T03:41:30;102442.00;;;2.35;100.00
79586;BME280;69054;50.866;4.636;2024-01-25T03:43:56;102442.84;;;2.22;100.00
79586;BME280;69054;50.866;4.636;2024-01-25T03:46:21;102443.72;;;2.23;100.00
79586;BME280;69054;50.866;4.636;2024-01-25T03:48:46;102435.22;;;2.29;100.00
79586;BME280;69054;50.866;4.636;2024-01-25T03:51:12;102439.69;;;2.43;100.00
79586;BME280;69054;50.866;4.636;2024-01-25T03:53:37;102436.44;;;2.38;100.00
79586;BME280;69054;50.866;4.636;2024-01-25T03:56:10;102444.56;;;2.23;100.00
79586;BME280;69054;50.866;4.636;2024-01-25T03:58:37;102442.28;;;2.03;100.00
79586;BME280;69054;50.866;4.636;2024-01-25T04:01:02;102436.28;;;1.85;100.00
79586;BME280;69054;50.866;4.636;2024-01-25T04:03:28;102438.03;;;1.71;100.00
79586;BME280;69054;50.866;4.636;2024-01-25T04:05:53;102435.31;;;1.57;100.00
79586;BME280;69054;50.866;4.636;2024-01-25T04:08:19;102447.72;;;1.45;100.00
79586;BME280;69054;50.866;4.636;2024-01-25T04:10:44;102445.53;;;1.37;100.00
79586;BME280;69054;50.866;4.636;2024-01-25T04:13:10;102441.22;;;1.35;100.00
79586;BME280;69054;50.866;4.636;2024-01-25T04:15:35;102440.41;;;1.33;100.00
79586;BME280;69054;50.866;4.636;2024-01-25T04:18:00;102442.72;;;1.24;100.00
79586;BME280;69054;50.866;4.636;2024-01-25T04:20:26;102438.00;;;1.28;100.00
79586;BME280;69054;50.866;4.636;2024-01-25T04:22:52;102430.34;;;1.36;100.00
79586;BME280;69054;50.866;4.636;2024-01-25T04:25:18;102434.94;;;1.34;100.00
79586;BME280;69054;50.866;4.636;2024-01-25T04:27:43;102436.66;;;1.21;100.00
79586;BME280;69054;50.866;4.636;2024-01-25T04:30:09;102434.53;;;1.12;100.00
79586;BME280;69054;50.866;4.636;2024-01-25T04:32:35;102423.28;;;1.05;100.00
79586;BME280;69054;50.866;4.636;2024-01-25T04:35:01;102428.84;;;1.02;100.00
79586;BME280;69054;50.866;4.636;2024-01-25T04:37:26;102432.50;;;1.01;100.00
79586;BME280;69054;50.866;4.636;2024-01-25T04:39:52;102444.31;;;0.98;100.00
79586;BME280;69054;50.866;4.636;2024-01-25T04:42:17;102449.13;;;0.93;100.00
79586;BME280;69054;50.866;4.636;2024-01-25T04:44:43;102438.63;;;0.88;100.00
79586;BME280;69054;50.866;4.636;2024-01-25T04:47:08;102442.41;;;1.00;100.00
79586;BME280;69054;50.866;4.636;2024-01-25T04:49:34;102436.94;;;1.16;100.00
79586;BME280;69054;50.866;4.636;2024-01-25T04:52:00;102426.94;;;1.18;100.00
79586;BME280;69054;50.866;4.636;2024-01-25T04:54:25;102433.28;;;1.17;100.00
79586;BME280;69054;50.866;4.636;2024-01-25T04:56:51;102433.00;;;1.22;100.00
79586;BME280;69054;50.866;4.636;2024-01-25T04:59:16;102423.69;;;1.28;100.00
79586;BME280;69054;50.866;4.636;2024-01-25T05:01:42;102419.91;;;1.16;100.00
79586;BME280;69054;50.866;4.636;2024-01-25T05:04:07;102426.34;;;0.99;100.00
79586;BME280;69054;50.866;4.636;2024-01-25T05:06:33;102421.81;;;0.85;100.00
79586;BME280;69054;50.866;4.636;2024-01-25T05:08:58;102429.81;;;0.70;100.00
79586;BME280;69054;50.866;4.636;2024-01-25T05:11:24;102432.03;;;0.64;100.00
79586;BME280;69054;50.866;4.636;2024-01-25T05:13:49;102421.47;;;0.75;100.00
79586;BME280;69054;50.866;4.636;2024-01-25T05:16:14;102413.91;;;0.82;100.00
79586;BME280;69054;50.866;4.636;2024-01-25T05:18:40;102416.94;;;0.76;100.00
79586;BME280;69054;50.866;4.636;2024-01-25T05:21:05;102423.84;;;0.65;100.00
79586;BME280;69054;50.866;4.636;2024-01-25T05:23:31;102427.84;;;0.58;100.00
79586;BME280;69054;50.866;4.636;2024-01-25T05:25:57;102429.44;;;0.46;100.00
79586;BME280;69054;50.866;4.636;2024-01-25T05:28:22;102433.06;;;0.45;100.00
79586;BME280;69054;50.866;4.636;2024-01-25T05:30:49;102425.53;;;0.52;100.00
79586;BME280;69054;50.866;4.636;2024-01-25T05:33:15;102429.69;;;0.58;100.00
79586;BME280;69054;50.866;4.636;2024-01-25T05:35:40;102428.63;;;0.60;100.00
79586;BME280;69054;50.866;4.636;2024-01-25T05:38:06;102431.84;;;0.51;100.00
79586;BME280;69054;50.866;4.636;2024-01-25T05:40:33;102422.84;;;0.36;100.00
79586;BME280;69054;50.866;4.636;2024-01-25T05:42:59;102423.56;;;0.24;100.00
79586;BME280;69054;50.866;4.636;2024-01-25T05:45:24;102425.66;;;0.19;100.00
79586;BME280;69054;50.866;4.636;2024-01-25T05:47:50;102434.84;;;0.14;100.00
79586;BME280;69054;50.866;4.636;2024-01-25T05:50:15;102435.31;;;0.07;100.00
79586;BME280;69054;50.866;4.636;2024-01-25T05:52:41;102436.50;;;0.01;100.00
79586;BME280;69054;50.866;4.636;2024-01-25T05:55:06;102436.59;;;-0.01;100.00
79586;BME280;69054;50.866;4.636;2024-01-25T05:57:35;102439.91;;;0.05;100.00
79586;BME280;69054;50.866;4.636;2024-01-25T06:00:00;102444.94;;;0.11;100.00
79586;BME280;69054;50.866;4.636;2024-01-25T06:02:26;102441.53;;;0.07;100.00
79586;BME280;69054;50.866;4.636;2024-01-25T06:04:51;102450.66;;;0.05;100.00
79586;BME280;69054;50.866;4.636;2024-01-25T06:07:17;102448.38;;;-0.03;100.00
79586;BME280;69054;50.866;4.636;2024-01-25T06:09:42;102441.09;;;-0.01;100.00
79586;BME280;69054;50.866;4.636;2024-01-25T06:12:08;102443.34;;;-0.09;100.00
79586;BME280;69054;50.866;4.636;2024-01-25T06:14:36;102437.03;;;-0.08;100.00
79586;BME280;69054;50.866;4.636;2024-01-25T06:17:02;102436.88;;;0.11;100.00
79586;BME280;69054;50.866;4.636;2024-01-25T06:19:28;102443.97;;;0.28;100.00
79586;BME280;69054;50.866;4.636;2024-01-25T06:21:53;102449.75;;;0.36;100.00
79586;BME280;69054;50.866;4.636;2024-01-25T06:24:19;102447.25;;;0.33;100.00
79586;BME280;69054;50.866;4.636;2024-01-25T06:26:44;102446.66;;;0.28;100.00
79586;BME280;69054;50.866;4.636;2024-01-25T06:29:09;102448.91;;;0.20;100.00
79586;BME280;69054;50.866;4.636;2024-01-25T06:31:44;102446.13;;;0.21;100.00
79586;BME280;69054;50.866;4.636;2024-01-25T06:34:10;102447.00;;;0.22;100.00
79586;BME280;69054;50.866;4.636;2024-01-25T06:36:36;102446.22;;;0.20;100.00
79586;BME280;69054;50.866;4.636;2024-01-25T06:39:02;102448.22;;;0.16;100.00
79586;BME280;69054;50.866;4.636;2024-01-25T06:41:29;102444.75;;;0.14;100.00
79586;BME280;69054;50.866;4.636;2024-01-25T06:43:55;102439.28;;;0.15;100.00
79586;BME280;69054;50.866;4.636;2024-01-25T06:46:20;102431.47;;;0.27;100.00
79586;BME280;69054;50.866;4.636;2024-01-25T06:48:45;102433.03;;;0.31;100.00
79586;BME280;69054;50.866;4.636;2024-01-25T06:51:11;102438.50;;;0.29;100.00
79586;BME280;69054;50.866;4.636;2024-01-25T06:53:36;102446.47;;;0.31;100.00
79586;BME280;69054;50.866;4.636;2024-01-25T06:56:02;102451.75;;;0.32;100.00
79586;BME280;69054;50.866;4.636;2024-01-25T06:58:27;102459.91;;;0.31;100.00
79586;BME280;69054;50.866;4.636;2024-01-25T07:00:53;102457.81;;;0.36;100.00
79586;BME280;69054;50.866;4.636;2024-01-25T07:03:19;102458.00;;;0.49;100.00
79586;BME280;69054;50.866;4.636;2024-01-25T07:05:44;102455.59;;;0.75;100.00
79586;BME280;69054;50.866;4.636;2024-01-25T07:08:09;102454.78;;;0.88;100.00
79586;BME280;69054;50.866;4.636;2024-01-25T07:10:39;102448.53;;;0.88;100.00
79586;BME280;69054;50.866;4.636;2024-01-25T07:13:05;102446.13;;;0.83;100.00
79586;BME280;69054;50.866;4.636;2024-01-25T07:15:30;102455.16;;;0.97;100.00
79586;BME280;69054;50.866;4.636;2024-01-25T07:17:56;102457.91;;;1.11;100.00
79586;BME280;69054;50.866;4.636;2024-01-25T07:20:21;102448.69;;;1.30;100.00
79586;BME280;69054;50.866;4.636;2024-01-25T07:22:46;102450.63;;;1.56;100.00
79586;BME280;69054;50.866;4.636;2024-01-25T07:25:12;102453.13;;;1.74;100.00
79586;BME280;69054;50.866;4.636;2024-01-25T07:27:37;102441.94;;;1.80;100.00
79586;BME280;69054;50.866;4.636;2024-01-25T07:30:07;102448.88;;;1.84;100.00
79586;BME280;69054;50.866;4.636;2024-01-25T07:32:33;102457.16;;;1.95;100.00
79586;BME280;69054;50.866;4.636;2024-01-25T07:35:01;102450.78;;;2.11;100.00
79586;BME280;69054;50.866;4.636;2024-01-25T07:37:26;102454.41;;;2.24;100.00
79586;BME280;69054;50.866;4.636;2024-01-25T07:39:52;102449.63;;;2.42;100.00
79586;BME280;69054;50.866;4.636;2024-01-25T07:42:17;102447.50;;;2.60;100.00
79586;BME280;69054;50.866;4.636;2024-01-25T07:44:43;102443.28;;;2.83;100.00
79586;BME280;69054;50.866;4.636;2024-01-25T07:47:08;102444.06;;;2.98;100.00
79586;BME280;69054;50.866;4.636;2024-01-25T07:49:34;102440.84;;;3.06;100.00
79586;BME280;69054;50.866;4.636;2024-01-25T07:51:59;102443.00;;;3.14;100.00
79586;BME280;69054;50.866;4.636;2024-01-25T07:54:25;102449.72;;;3.21;100.00
79586;BME280;69054;50.866;4.636;2024-01-25T07:56:50;102452.63;;;3.31;100.00
79586;BME280;69054;50.866;4.636;2024-01-25T07:59:16;102453.94;;;3.38;100.00
79586;BME280;69054;50.866;4.636;2024-01-25T08:01:41;102456.94;;;3.46;100.00
79586;BME280;69054;50.866;4.636;2024-01-25T08:04:07;102466.03;;;3.58;100.00
79586;BME280;69054;50.866;4.636;2024-01-25T08:06:32;102459.22;;;3.65;100.00
79586;BME280;69054;50.866;4.636;2024-01-25T08:08:58;102435.41;;;3.70;100.00
79586;BME280;69054;50.866;4.636;2024-01-25T08:11:24;102445.03;;;3.75;100.00
79586;BME280;69054;50.866;4.636;2024-01-25T08:13:49;102449.03;;;3.82;100.00
79586;BME280;69054;50.866;4.636;2024-01-25T08:16:15;102454.22;;;3.85;100.00
79586;BME280;69054;50.866;4.636;2024-01-25T08:18:45;102462.72;;;3.91;100.00
79586;BME280;69054;50.866;4.636;2024-01-25T08:21:11;102463.81;;;4.02;100.00
79586;BME280;69054;50.866;4.636;2024-01-25T08:23:37;102459.78;;;4.07;100.00
79586;BME280;69054;50.866;4.636;2024-01-25T08:26:04;102462.38;;;4.09;100.00
79586;BME280;69054;50.866;4.636;2024-01-25T08:28:29;102442.88;;;4.17;100.00
79586;BME280;69054;50.866;4.636;2024-01-25T08:30:55;102438.94;;;4.21;100.00
79586;BME280;69054;50.866;4.636;2024-01-25T08:33:20;102441.00;;;4.30;100.00
79586;BME280;69054;50.866;4.636;2024-01-25T08:35:46;102439.06;;;4.43;100.00
79586;BME280;69054;50.866;4.636;2024-01-25T08:38:11;102433.34;;;4.48;100.00
79586;BME280;69054;50.866;4.636;2024-01-25T08:40:36;102447.78;;;4.60;100.00
79586;BME280;69054;50.866;4.636;2024-01-25T08:43:02;102453.47;;;4.68;100.00
79586;BME280;69054;50.866;4.636;2024-01-25T08:45:27;102444.66;;;4.77;100.00
79586;BME280;69054;50.866;4.636;2024-01-25T08:47:53;102447.13;;;4.80;100.00
79586;BME280;69054;50.866;4.636;2024-01-25T08:50:18;102447.63;;;4.86;100.00
79586;BME280;69054;50.866;4.636;2024-01-25T08:52:44;102447.50;;;4.87;100.00
79586;BME280;69054;50.866;4.636;2024-01-25T08:55:09;102445.16;;;4.83;100.00
79586;BME280;69054;50.866;4.636;2024-01-25T08:57:35;102449.38;;;4.87;100.00
79586;BME280;69054;50.866;4.636;2024-01-25T09:00:01;102451.25;;;4.97;100.00
79586;BME280;69054;50.866;4.636;2024-01-25T09:02:27;102447.16;;;4.92;100.00
79586;BME280;69054;50.866;4.636;2024-01-25T09:04:55;102457.88;;;4.93;100.00
79586;BME280;69054;50.866;4.636;2024-01-25T09:07:21;102450.63;;;4.94;100.00
79586;BME280;69054;50.866;4.636;2024-01-25T09:09:46;102454.47;;;5.03;100.00
79586;BME280;69054;50.866;4.636;2024-01-25T09:12:11;102451.28;;;5.09;100.00
79586;BME280;69054;50.866;4.636;2024-01-25T09:14:38;102446.56;;;5.00;100.00
79586;BME280;69054;50.866;4.636;2024-01-25T09:17:04;102444.88;;;5.10;100.00
79586;BME280;69054;50.866;4.636;2024-01-25T09:19:30;102444.16;;;5.19;100.00
79586;BME280;69054;50.866;4.636;2024-01-25T09:21:56;102447.25;;;5.26;100.00
79586;BME280;69054;50.866;4.636;2024-01-25T09:24:25;102434.69;;;5.25;100.00
79586;BME280;69054;50.866;4.636;2024-01-25T09:26:50;102432.97;;;5.35;100.00
79586;BME280;69054;50.866;4.636;2024-01-25T09:29:15;102435.44;;;5.38;100.00
79586;BME280;69054;50.866;4.636;2024-01-25T09:31:41;102444.66;;;5.36;100.00
79586;BME280;69054;50.866;4.636;2024-01-25T09:34:06;102450.75;;;5.39;100.00
79586;BME280;69054;50.866;4.636;2024-01-25T09:36:32;102452.97;;;5.45;100.00
79586;BME280;69054;50.866;4.636;2024-01-25T09:38:57;102454.06;;;5.43;100.00
79586;BME280;69054;50.866;4.636;2024-01-25T09:41:23;102439.03;;;5.50;100.00
79586;BME280;69054;50.866;4.636;2024-01-25T09:43:49;102452.97;;;5.45;100.00
79586;BME280;69054;50.866;4.636;2024-01-25T09:46:15;102457.78;;;5.53;100.00
79586;BME280;69054;50.866;4.636;2024-01-25T09:48:42;102457.91;;;5.51;100.00
79586;BME280;69054;50.866;4.636;2024-01-25T09:51:09;102461.97;;;5.57;100.00
79586;BME280;69054;50.866;4.636;2024-01-25T09:53:37;102456.44;;;5.59;100.00
79586;BME280;69054;50.866;4.636;2024-01-25T09:56:12;102439.66;;;5.65;100.00
79586;BME280;69054;50.866;4.636;2024-01-25T09:58:42;102447.06;;;5.74;100.00
79586;BME280;69054;50.866;4.636;2024-01-25T10:01:13;102439.41;;;5.79;100.00
79586;BME280;69054;50.866;4.636;2024-01-25T10:03:44;102431.75;;;5.73;100.00
79586;BME280;69054;50.866;4.636;2024-01-25T10:06:14;102432.75;;;5.83;100.00
79586;BME280;69054;50.866;4.636;2024-01-25T10:08:39;102435.94;;;5.89;100.00
79586;BME280;69054;50.866;4.636;2024-01-25T10:11:05;102435.56;;;5.93;100.00
79586;BME280;69054;50.866;4.636;2024-01-25T10:13:31;102446.28;;;5.95;100.00
79586;BME280;69054;50.866;4.636;2024-01-25T10:15:57;102449.03;;;6.06;100.00
79586;BME280;69054;50.866;4.636;2024-01-25T10:18:25;102434.97;;;6.12;100.00
79586;BME280;69054;50.866;4.636;2024-01-25T10:20:53;102421.47;;;6.22;100.00
79586;BME280;69054;50.866;4.636;2024-01-25T10:23:18;102413.00;;;6.15;100.00
79586;BME280;69054;50.866;4.636;2024-01-25T10:25:44;102419.78;;;6.21;100.00
79586;BME280;69054;50.866;4.636;2024-01-25T10:28:10;102424.94;;;6.24;100.00
79586;BME280;69054;50.866;4.636;2024-01-25T10:30:38;102421.47;;;6.22;100.00
79586;BME280;69054;50.866;4.636;2024-01-25T10:33:04;102425.78;;;6.25;100.00
79586;BME280;69054;50.866;4.636;2024-01-25T10:35:31;102415.78;;;6.36;100.00
79586;BME280;69054;50.866;4.636;2024-01-25T10:37:56;102421.06;;;6.38;100.00
79586;BME280;69054;50.866;4.636;2024-01-25T10:40:22;102421.66;;;6.42;100.00
79586;BME280;69054;50.866;4.636;2024-01-25T10:42:48;102425.41;;;6.41;100.00
79586;BME280;69054;50.866;4.636;2024-01-25T10:45:14;102416.22;;;6.42;100.00
79586;BME280;69054;50.866;4.636;2024-01-25T10:47:40;102414.28;;;6.44;100.00
79586;BME280;69054;50.866;4.636;2024-01-25T10:50:13;102410.78;;;6.53;100.00
79586;BME280;69054;50.866;4.636;2024-01-25T10:52:41;102409.28;;;6.60;100.00
79586;BME280;69054;50.866;4.636;2024-01-25T10:55:07;102408.50;;;6.69;100.00
79586;BME280;69054;50.866;4.636;2024-01-25T10:57:35;102403.25;;;6.78;100.00
79586;BME280;69054;50.866;4.636;2024-01-25T11:00:05;102402.84;;;6.82;100.00
79586;BME280;69054;50.866;4.636;2024-01-25T11:02:34;102395.63;;;6.92;100.00
79586;BME280;69054;50.866;4.636;2024-01-25T11:05:00;102386.91;;;6.89;100.00
79586;BME280;69054;50.866;4.636;2024-01-25T11:07:26;102384.63;;;6.94;100.00
79586;BME280;69054;50.866;4.636;2024-01-25T11:09:52;102378.13;;;7.06;100.00
79586;BME280;69054;50.866;4.636;2024-01-25T11:12:18;102373.28;;;7.10;100.00
79586;BME280;69054;50.866;4.636;2024-01-25T11:14:54;102367.78;;;7.21;100.00
79586;BME280;69054;50.866;4.636;2024-01-25T11:17:20;102355.38;;;7.28;100.00
79586;BME280;69054;50.866;4.636;2024-01-25T11:19:48;102356.78;;;7.33;100.00
79586;BME280;69054;50.866;4.636;2024-01-25T11:22:14;102354.13;;;7.42;100.00
79586;BME280;69054;50.866;4.636;2024-01-25T11:24:40;102356.72;;;7.44;100.00
79586;BME280;69054;50.866;4.636;2024-01-25T11:27:05;102355.13;;;7.41;100.00
79586;BME280;69054;50.866;4.636;2024-01-25T11:29:33;102351.97;;;7.46;100.00
79586;BME280;69054;50.866;4.636;2024-01-25T11:31:58;102339.13;;;7.48;100.00
79586;BME280;69054;50.866;4.636;2024-01-25T11:34:24;102324.06;;;7.44;100.00
79586;BME280;69054;50.866;4.636;2024-01-25T11:36:50;102320.94;;;7.49;100.00
79586;BME280;69054;50.866;4.636;2024-01-25T11:39:16;102315.34;;;7.50;100.00
79586;BME280;69054;50.866;4.636;2024-01-25T11:41:43;102320.25;;;7.56;100.00
79586;BME280;69054;50.866;4.636;2024-01-25T11:44:12;102325.88;;;7.64;100.00
79586;BME280;69054;50.866;4.636;2024-01-25T11:46:41;102315.56;;;7.78;100.00
79586;BME280;69054;50.866;4.636;2024-01-25T11:49:07;102319.03;;;7.80;100.00
79586;BME280;69054;50.866;4.636;2024-01-25T11:51:33;102316.16;;;7.91;100.00
79586;BME280;69054;50.866;4.636;2024-01-25T11:53:59;102306.16;;;8.02;100.00
79586;BME280;69054;50.866;4.636;2024-01-25T11:56:29;102311.59;;;8.02;100.00
79586;BME280;69054;50.866;4.636;2024-01-25T11:58:57;102308.59;;;7.95;100.00
79586;BME280;69054;50.866;4.636;2024-01-25T12:01:26;102296.84;;;7.94;100.00
79586;BME280;69054;50.866;4.636;2024-01-25T12:03:53;102295.69;;;7.97;100.00
79586;BME280;69054;50.866;4.636;2024-01-25T12:06:19;102295.84;;;8.05;100.00
79586;BME280;69054;50.866;4.636;2024-01-25T12:08:44;102291.13;;;8.07;100.00
79586;BME280;69054;50.866;4.636;2024-01-25T12:11:11;102289.38;;;8.16;100.00
79586;BME280;69054;50.866;4.636;2024-01-25T12:13:41;102291.56;;;8.22;100.00
79586;BME280;69054;50.866;4.636;2024-01-25T12:16:08;102278.94;;;8.21;100.00
79586;BME280;69054;50.866;4.636;2024-01-25T12:18:34;102284.25;;;8.23;100.00
79586;BME280;69054;50.866;4.636;2024-01-25T12:21:04;102276.63;;;8.26;100.00
79586;BME280;69054;50.866;4.636;2024-01-25T12:23:37;102277.06;;;8.31;100.00
79586;BME280;69054;50.866;4.636;2024-01-25T12:26:07;102278.06;;;8.30;100.00
79586;BME280;69054;50.866;4.636;2024-01-25T12:28:33;102275.06;;;8.33;100.00
79586;BME280;69054;50.866;4.636;2024-01-25T12:30:59;102264.72;;;8.37;100.00
79586;BME280;69054;50.866;4.636;2024-01-25T12:33:25;102253.69;;;8.39;100.00
79586;BME280;69054;50.866;4.636;2024-01-25T12:35:51;102249.81;;;8.41;100.00
79586;BME280;69054;50.866;4.636;2024-01-25T12:38:16;102243.25;;;8.44;100.00
79586;BME280;69054;50.866;4.636;2024-01-25T12:40:43;102248.09;;;8.40;100.00
79586;BME280;69054;50.866;4.636;2024-01-25T12:43:09;102238.78;;;8.43;100.00
79586;BME280;69054;50.866;4.636;2024-01-25T12:45:37;102237.03;;;8.42;100.00